sensor_id;sensor_type;location;lat;lon;timestamp;P1;durP1;ratioP1;P2;durP2;ratioP2
84025;SDS011;74110;45.660;25.582;2024-02-26T00:00:21;12.40;;;6.00;;
84025;SDS011;74110;45.660;25.582;2024-02-26T00:03:09;10.60;;;5.20;;
84025;SDS011;74110;45.660;25.582;2024-02-26T00:05:38;10.70;;;5.10;;
84025;SDS011;74110;45.660;25.582;2024-02-26T00:08:07;11.00;;;5.70;;
84025;SDS011;74110;45.660;25.582;2024-02-26T00:10:35;11.50;;;5.60;;
84025;SDS011;74110;45.660;25.582;2024-02-26T00:13:02;10.50;;;5.60;;
84025;SDS011;74110;45.660;25.582;2024-02-26T00:15:31;8.90;;;5.00;;
84025;SDS011;74110;45.660;25.582;2024-02-26T00:17:59;12.80;;;5.60;;
84025;SDS011;74110;45.660;25.582;2024-02-26T00:20:27;11.10;;;5.50;;
84025;SDS011;74110;45.660;25.582;2024-02-26T00:22:57;12.80;;;6.10;;
84025;SDS011;74110;45.660;25.582;2024-02-26T00:25:25;13.50;;;6.60;;
84025;SDS011;74110;45.660;25.582;2024-02-26T00:27:53;12.40;;;6.20;;
84025;SDS011;74110;45.660;25.582;2024-02-26T00:30:20;11.80;;;5.90;;
84025;SDS011;74110;45.660;25.582;2024-02-26T00:32:50;13.40;;;6.60;;
84025;SDS011;74110;45.660;25.582;2024-02-26T00:35:18;10.40;;;6.00;;
84025;SDS011;74110;45.660;25.582;2024-02-26T00:37:48;14.20;;;6.10;;
84025;SDS011;74110;45.660;25.582;2024-02-26T00:40:15;14.20;;;6.90;;
84025;SDS011;74110;45.660;25.582;2024-02-26T00:42:43;12.50;;;6.50;;
84025;SDS011;74110;45.660;25.582;2024-02-26T00:45:13;11.90;;;6.10;;
84025;SDS011;74110;45.660;25.582;2024-02-26T00:47:42;12.60;;;6.00;;
84025;SDS011;74110;45.660;25.582;2024-02-26T00:50:11;8.90;;;4.50;;
84025;SDS011;74110;45.660;25.582;2024-02-26T00:52:39;10.50;;;4.80;;
84025;SDS011;74110;45.660;25.582;2024-02-26T00:55:07;10.70;;;4.90;;
84025;SDS011;74110;45.660;25.582;2024-02-26T00:57:36;10.50;;;4.40;;
84025;SDS011;74110;45.660;25.582;2024-02-26T01:00:03;12.00;;;5.10;;
84025;SDS011;74110;45.660;25.582;2024-02-26T01:02:31;13.40;;;5.80;;
84025;SDS011;74110;45.660;25.582;2024-02-26T01:04:58;9.10;;;4.90;;
84025;SDS011;74110;45.660;25.582;2024-02-26T01:07:26;8.60;;;4.20;;
84025;SDS011;74110;45.660;25.582;2024-02-26T01:09:55;10.30;;;4.90;;
84025;SDS011;74110;45.660;25.582;2024-02-26T01:14:50;9.70;;;4.80;;
84025;SDS011;74110;45.660;25.582;2024-02-26T01:19:46;9.10;;;4.90;;
84025;SDS011;74110;45.660;25.582;2024-02-26T01:22:14;9.30;;;5.00;;
84025;SDS011;74110;45.660;25.582;2024-02-26T01:24:42;8.70;;;4.90;;
84025;SDS011;74110;45.660;25.582;2024-02-26T01:27:09;7.90;;;3.90;;
84025;SDS011;74110;45.660;25.582;2024-02-26T01:29:37;7.70;;;4.10;;
84025;SDS011;74110;45.660;25.582;2024-02-26T01:32:07;9.50;;;5.00;;
84025;SDS011;74110;45.660;25.582;2024-02-26T01:37:04;11.60;;;5.30;;
84025;SDS011;74110;45.660;25.582;2024-02-26T01:39:32;10.60;;;4.60;;
84025;SDS011;74110;45.660;25.582;2024-02-26T01:41:59;8.20;;;4.60;;
84025;SDS011;74110;45.660;25.582;2024-02-26T01:44:28;7.60;;;4.30;;
84025;SDS011;74110;45.660;25.582;2024-02-26T01:46:56;10.30;;;5.10;;
84025;SDS011;74110;45.660;25.582;2024-02-26T01:49:25;9.30;;;5.00;;
84025;SDS011;74110;45.660;25.582;2024-02-26T01:51:53;11.10;;;5.00;;
84025;SDS011;74110;45.660;25.582;2024-02-26T01:54:22;8.60;;;4.90;;
84025;SDS011;74110;45.660;25.582;2024-02-26T01:56:50;8.00;;;4.10;;
84025;SDS011;74110;45.660;25.582;2024-02-26T01:59:19;9.00;;;4.60;;
84025;SDS011;74110;45.660;25.582;2024-02-26T02:01:48;11.10;;;5.20;;
84025;SDS011;74110;45.660;25.582;2024-02-26T02:04:21;6.60;;;3.50;;
84025;SDS011;74110;45.660;25.582;2024-02-26T02:06:50;8.00;;;4.00;;
84025;SDS011;74110;45.660;25.582;2024-02-26T02:09:19;8.80;;;4.80;;
84025;SDS011;74110;45.660;25.582;2024-02-26T02:11:49;8.20;;;4.90;;
84025;SDS011;74110;45.660;25.582;2024-02-26T02:14:17;7.90;;;4.40;;
84025;SDS011;74110;45.660;25.582;2024-02-26T02:16:44;7.60;;;4.50;;
84025;SDS011;74110;45.660;25.582;2024-02-26T02:19:12;8.20;;;4.60;;
84025;SDS011;74110;45.660;25.582;2024-02-26T02:21:41;9.50;;;4.80;;
84025;SDS011;74110;45.660;25.582;2024-02-26T02:24:08;8.40;;;4.70;;
84025;SDS011;74110;45.660;25.582;2024-02-26T02:29:04;8.80;;;4.80;;
84025;SDS011;74110;45.660;25.582;2024-02-26T02:31:33;11.80;;;5.10;;
84025;SDS011;74110;45.660;25.582;2024-02-26T02:34:01;10.40;;;5.40;;
84025;SDS011;74110;45.660;25.582;2024-02-26T02:36:31;9.60;;;5.20;;
84025;SDS011;74110;45.660;25.582;2024-02-26T02:39:00;10.10;;;5.00;;
84025;SDS011;74110;45.660;25.582;2024-02-26T02:41:27;8.20;;;4.70;;
84025;SDS011;74110;45.660;25.582;2024-02-26T02:43:56;10.50;;;5.00;;
84025;SDS011;74110;45.660;25.582;2024-02-26T02:46:25;10.10;;;4.20;;
84025;SDS011;74110;45.660;25.582;2024-02-26T02:48:52;10.00;;;4.90;;
84025;SDS011;74110;45.660;25.582;2024-02-26T02:51:20;9.70;;;5.20;;
84025;SDS011;74110;45.660;25.582;2024-02-26T02:53:49;10.80;;;5.30;;
84025;SDS011;74110;45.660;25.582;2024-02-26T02:56:17;9.30;;;4.70;;
84025;SDS011;74110;45.660;25.582;2024-02-26T02:58:44;8.30;;;5.00;;
84025;SDS011;74110;45.660;25.582;2024-02-26T03:01:13;9.20;;;4.40;;
84025;SDS011;74110;45.660;25.582;2024-02-26T03:03:40;9.60;;;5.20;;
84025;SDS011;74110;45.660;25.582;2024-02-26T03:06:08;9.90;;;5.40;;
84025;SDS011;74110;45.660;25.582;2024-02-26T03:08:36;9.80;;;4.70;;
84025;SDS011;74110;45.660;25.582;2024-02-26T03:11:06;10.00;;;4.80;;
84025;SDS011;74110;45.660;25.582;2024-02-26T03:13:35;10.20;;;5.50;;
84025;SDS011;74110;45.660;25.582;2024-02-26T03:16:06;11.00;;;5.60;;
84025;SDS011;74110;45.660;25.582;2024-02-26T03:18:34;11.60;;;4.80;;
84025;SDS011;74110;45.660;25.582;2024-02-26T03:21:03;9.10;;;5.50;;
84025;SDS011;74110;45.660;25.582;2024-02-26T03:23:32;9.90;;;4.60;;
84025;SDS011;74110;45.660;25.582;2024-02-26T03:26:04;10.70;;;5.20;;
84025;SDS011;74110;45.660;25.582;2024-02-26T03:28:32;8.40;;;4.70;;
84025;SDS011;74110;45.660;25.582;2024-02-26T03:31:01;10.80;;;6.10;;
84025;SDS011;74110;45.660;25.582;2024-02-26T03:33:31;12.20;;;5.80;;
84025;SDS011;74110;45.660;25.582;2024-02-26T03:35:59;9.30;;;5.50;;
84025;SDS011;74110;45.660;25.582;2024-02-26T03:38:29;10.80;;;5.40;;
84025;SDS011;74110;45.660;25.582;2024-02-26T03:40:57;11.70;;;5.80;;
84025;SDS011;74110;45.660;25.582;2024-02-26T03:43:25;9.20;;;5.40;;
84025;SDS011;74110;45.660;25.582;2024-02-26T03:45:52;10.90;;;5.60;;
84025;SDS011;74110;45.660;25.582;2024-02-26T03:50:49;9.50;;;5.80;;
84025;SDS011;74110;45.660;25.582;2024-02-26T03:53:16;13.20;;;5.90;;
84025;SDS011;74110;45.660;25.582;2024-02-26T03:55:45;11.80;;;5.90;;
84025;SDS011;74110;45.660;25.582;2024-02-26T03:58:14;11.10;;;5.50;;
84025;SDS011;74110;45.660;25.582;2024-02-26T04:00:43;12.20;;;6.00;;
84025;SDS011;74110;45.660;25.582;2024-02-26T04:03:10;11.30;;;5.50;;
84025;SDS011;74110;45.660;25.582;2024-02-26T04:05:39;9.90;;;5.10;;
84025;SDS011;74110;45.660;25.582;2024-02-26T04:08:08;12.40;;;6.10;;
84025;SDS011;74110;45.660;25.582;2024-02-26T04:13:06;11.50;;;5.00;;
84025;SDS011;74110;45.660;25.582;2024-02-26T04:15:34;11.70;;;5.40;;
84025;SDS011;74110;45.660;25.582;2024-02-26T04:18:02;11.40;;;5.40;;
84025;SDS011;74110;45.660;25.582;2024-02-26T04:20:31;11.80;;;5.90;;
84025;SDS011;74110;45.660;25.582;2024-02-26T04:22:59;10.30;;;5.60;;
84025;SDS011;74110;45.660;25.582;2024-02-26T04:25:30;11.90;;;5.60;;
84025;SDS011;74110;45.660;25.582;2024-02-26T04:27:58;8.80;;;5.10;;
84025;SDS011;74110;45.660;25.582;2024-02-26T04:30:26;11.70;;;5.10;;
84025;SDS011;74110;45.660;25.582;2024-02-26T04:32:54;10.10;;;5.70;;
84025;SDS011;74110;45.660;25.582;2024-02-26T04:35:21;10.90;;;6.40;;
84025;SDS011;74110;45.660;25.582;2024-02-26T04:37:50;12.70;;;6.10;;
84025;SDS011;74110;45.660;25.582;2024-02-26T04:40:17;14.50;;;6.50;;
84025;SDS011;74110;45.660;25.582;2024-02-26T04:42:45;12.60;;;6.10;;
84025;SDS011;74110;45.660;25.582;2024-02-26T04:45:14;9.40;;;5.90;;
84025;SDS011;74110;45.660;25.582;2024-02-26T04:47:42;13.20;;;5.60;;
84025;SDS011;74110;45.660;25.582;2024-02-26T04:50:14;11.10;;;5.50;;
84025;SDS011;74110;45.660;25.582;2024-02-26T04:52:45;13.60;;;5.70;;
84025;SDS011;74110;45.660;25.582;2024-02-26T04:55:13;10.70;;;6.40;;
84025;SDS011;74110;45.660;25.582;2024-02-26T04:57:41;12.10;;;6.40;;
84025;SDS011;74110;45.660;25.582;2024-02-26T05:00:10;9.50;;;5.30;;
84025;SDS011;74110;45.660;25.582;2024-02-26T05:02:39;10.10;;;5.40;;
84025;SDS011;74110;45.660;25.582;2024-02-26T05:07:39;11.00;;;5.70;;
84025;SDS011;74110;45.660;25.582;2024-02-26T05:10:09;10.60;;;5.20;;
84025;SDS011;74110;45.660;25.582;2024-02-26T05:12:38;9.50;;;6.20;;
84025;SDS011;74110;45.660;25.582;2024-02-26T05:15:09;11.30;;;6.00;;
84025;SDS011;74110;45.660;25.582;2024-02-26T05:17:37;15.10;;;6.40;;
84025;SDS011;74110;45.660;25.582;2024-02-26T05:20:06;17.10;;;8.20;;
84025;SDS011;74110;45.660;25.582;2024-02-26T05:22:35;22.40;;;10.90;;
84025;SDS011;74110;45.660;25.582;2024-02-26T05:25:03;21.10;;;10.30;;
84025;SDS011;74110;45.660;25.582;2024-02-26T05:27:31;24.90;;;12.30;;
84025;SDS011;74110;45.660;25.582;2024-02-26T05:29:58;22.00;;;11.20;;
84025;SDS011;74110;45.660;25.582;2024-02-26T05:32:27;20.30;;;10.70;;
84025;SDS011;74110;45.660;25.582;2024-02-26T05:34:56;15.20;;;7.60;;
84025;SDS011;74110;45.660;25.582;2024-02-26T05:37:23;16.80;;;8.20;;
84025;SDS011;74110;45.660;25.582;2024-02-26T05:39:51;19.20;;;10.20;;
84025;SDS011;74110;45.660;25.582;2024-02-26T05:42:20;19.90;;;10.80;;
84025;SDS011;74110;45.660;25.582;2024-02-26T05:44:49;16.20;;;9.60;;
84025;SDS011;74110;45.660;25.582;2024-02-26T05:47:17;16.10;;;8.70;;
84025;SDS011;74110;45.660;25.582;2024-02-26T05:49:44;18.80;;;8.40;;
84025;SDS011;74110;45.660;25.582;2024-02-26T05:52:12;19.20;;;9.40;;
84025;SDS011;74110;45.660;25.582;2024-02-26T05:54:40;15.90;;;8.70;;
84025;SDS011;74110;45.660;25.582;2024-02-26T05:57:08;16.30;;;8.50;;
84025;SDS011;74110;45.660;25.582;2024-02-26T05:59:36;17.20;;;9.10;;
84025;SDS011;74110;45.660;25.582;2024-02-26T06:02:04;22.30;;;11.20;;
84025;SDS011;74110;45.660;25.582;2024-02-26T06:04:32;20.40;;;10.80;;
84025;SDS011;74110;45.660;25.582;2024-02-26T06:07:00;18.40;;;9.10;;
84025;SDS011;74110;45.660;25.582;2024-02-26T06:09:28;18.00;;;9.20;;
84025;SDS011;74110;45.660;25.582;2024-02-26T06:11:56;18.20;;;10.70;;
84025;SDS011;74110;45.660;25.582;2024-02-26T06:14:23;21.00;;;11.00;;
84025;SDS011;74110;45.660;25.582;2024-02-26T06:16:53;16.70;;;9.40;;
84025;SDS011;74110;45.660;25.582;2024-02-26T06:19:20;17.20;;;10.20;;
84025;SDS011;74110;45.660;25.582;2024-02-26T06:21:48;19.00;;;9.40;;
84025;SDS011;74110;45.660;25.582;2024-02-26T06:24:16;16.20;;;8.80;;
84025;SDS011;74110;45.660;25.582;2024-02-26T06:26:45;15.10;;;8.90;;
84025;SDS011;74110;45.660;25.582;2024-02-26T06:29:13;14.60;;;8.20;;
84025;SDS011;74110;45.660;25.582;2024-02-26T06:31:42;13.30;;;7.50;;
84025;SDS011;74110;45.660;25.582;2024-02-26T06:34:10;15.00;;;8.80;;
84025;SDS011;74110;45.660;25.582;2024-02-26T06:36:41;15.00;;;8.00;;
84025;SDS011;74110;45.660;25.582;2024-02-26T06:39:08;12.40;;;6.20;;
84025;SDS011;74110;45.660;25.582;2024-02-26T06:41:39;15.40;;;7.20;;
84025;SDS011;74110;45.660;25.582;2024-02-26T06:44:07;13.70;;;6.70;;
84025;SDS011;74110;45.660;25.582;2024-02-26T06:46:35;13.40;;;6.30;;
84025;SDS011;74110;45.660;25.582;2024-02-26T06:49:04;14.10;;;7.90;;
84025;SDS011;74110;45.660;25.582;2024-02-26T06:51:34;15.70;;;7.20;;
84025;SDS011;74110;45.660;25.582;2024-02-26T06:54:01;11.60;;;5.40;;
84025;SDS011;74110;45.660;25.582;2024-02-26T06:56:29;13.20;;;6.40;;
84025;SDS011;74110;45.660;25.582;2024-02-26T06:58:57;12.90;;;6.20;;
84025;SDS011;74110;45.660;25.582;2024-02-26T07:01:25;14.20;;;7.10;;
84025;SDS011;74110;45.660;25.582;2024-02-26T07:03:53;14.90;;;7.70;;
84025;SDS011;74110;45.660;25.582;2024-02-26T07:06:22;15.00;;;7.50;;
84025;SDS011;74110;45.660;25.582;2024-02-26T07:08:49;12.90;;;7.30;;
84025;SDS011;74110;45.660;25.582;2024-02-26T07:11:19;14.70;;;8.00;;
84025;SDS011;74110;45.660;25.582;2024-02-26T07:13:48;14.90;;;7.90;;
84025;SDS011;74110;45.660;25.582;2024-02-26T07:16:17;17.70;;;7.80;;
84025;SDS011;74110;45.660;25.582;2024-02-26T07:18:44;15.90;;;7.50;;
84025;SDS011;74110;45.660;25.582;2024-02-26T07:21:13;14.80;;;7.00;;
84025;SDS011;74110;45.660;25.582;2024-02-26T07:23:41;11.40;;;6.60;;
84025;SDS011;74110;45.660;25.582;2024-02-26T07:26:09;13.00;;;7.60;;
84025;SDS011;74110;45.660;25.582;2024-02-26T07:28:39;14.90;;;7.80;;
84025;SDS011;74110;45.660;25.582;2024-02-26T07:31:07;16.60;;;8.30;;
84025;SDS011;74110;45.660;25.582;2024-02-26T07:33:36;22.40;;;12.50;;
84025;SDS011;74110;45.660;25.582;2024-02-26T07:36:04;17.70;;;9.70;;
84025;SDS011;74110;45.660;25.582;2024-02-26T07:38:32;13.70;;;6.80;;
84025;SDS011;74110;45.660;25.582;2024-02-26T07:41:10;16.30;;;8.80;;
84025;SDS011;74110;45.660;25.582;2024-02-26T07:43:39;18.70;;;8.70;;
84025;SDS011;74110;45.660;25.582;2024-02-26T07:46:10;14.80;;;8.10;;
84025;SDS011;74110;45.660;25.582;2024-02-26T07:48:40;17.60;;;9.00;;
84025;SDS011;74110;45.660;25.582;2024-02-26T07:51:08;13.70;;;8.10;;
84025;SDS011;74110;45.660;25.582;2024-02-26T07:53:39;18.90;;;9.90;;
84025;SDS011;74110;45.660;25.582;2024-02-26T07:56:07;17.90;;;9.50;;
84025;SDS011;74110;45.660;25.582;2024-02-26T07:58:36;17.50;;;10.70;;
84025;SDS011;74110;45.660;25.582;2024-02-26T08:03:33;19.90;;;9.50;;
84025;SDS011;74110;45.660;25.582;2024-02-26T08:06:02;15.60;;;8.80;;
84025;SDS011;74110;45.660;25.582;2024-02-26T08:08:30;15.90;;;9.10;;
84025;SDS011;74110;45.660;25.582;2024-02-26T08:10:58;17.50;;;9.30;;
84025;SDS011;74110;45.660;25.582;2024-02-26T08:13:27;21.50;;;10.10;;
84025;SDS011;74110;45.660;25.582;2024-02-26T08:15:54;25.40;;;10.10;;
84025;SDS011;74110;45.660;25.582;2024-02-26T08:18:21;17.90;;;9.00;;
84025;SDS011;74110;45.660;25.582;2024-02-26T08:20:50;21.60;;;9.80;;
84025;SDS011;74110;45.660;25.582;2024-02-26T08:23:17;20.20;;;9.30;;
84025;SDS011;74110;45.660;25.582;2024-02-26T08:25:46;18.60;;;9.60;;
84025;SDS011;74110;45.660;25.582;2024-02-26T08:28:15;18.20;;;9.90;;
84025;SDS011;74110;45.660;25.582;2024-02-26T08:30:44;16.30;;;8.70;;
84025;SDS011;74110;45.660;25.582;2024-02-26T08:33:13;19.10;;;9.90;;
84025;SDS011;74110;45.660;25.582;2024-02-26T08:35:42;19.80;;;10.10;;
84025;SDS011;74110;45.660;25.582;2024-02-26T08:38:10;17.00;;;9.70;;
84025;SDS011;74110;45.660;25.582;2024-02-26T08:40:38;18.70;;;8.60;;
84025;SDS011;74110;45.660;25.582;2024-02-26T08:43:07;16.10;;;8.20;;
84025;SDS011;74110;45.660;25.582;2024-02-26T08:45:37;21.00;;;10.30;;
84025;SDS011;74110;45.660;25.582;2024-02-26T08:48:05;15.90;;;9.20;;
84025;SDS011;74110;45.660;25.582;2024-02-26T08:50:33;19.80;;;9.70;;
84025;SDS011;74110;45.660;25.582;2024-02-26T08:53:00;18.20;;;9.60;;
84025;SDS011;74110;45.660;25.582;2024-02-26T08:55:33;21.10;;;9.50;;
84025;SDS011;74110;45.660;25.582;2024-02-26T08:58:01;16.20;;;8.90;;
84025;SDS011;74110;45.660;25.582;2024-02-26T09:02:56;19.20;;;9.80;;
84025;SDS011;74110;45.660;25.582;2024-02-26T09:05:24;23.50;;;10.40;;
84025;SDS011;74110;45.660;25.582;2024-02-26T09:10:19;19.60;;;10.80;;
84025;SDS011;74110;45.660;25.582;2024-02-26T09:12:47;20.40;;;10.40;;
84025;SDS011;74110;45.660;25.582;2024-02-26T09:15:14;19.50;;;11.10;;
84025;SDS011;74110;45.660;25.582;2024-02-26T09:17:42;23.10;;;12.00;;
84025;SDS011;74110;45.660;25.582;2024-02-26T09:20:12;19.00;;;10.90;;
84025;SDS011;74110;45.660;25.582;2024-02-26T09:22:42;20.20;;;10.90;;
84025;SDS011;74110;45.660;25.582;2024-02-26T09:25:09;20.30;;;11.90;;
84025;SDS011;74110;45.660;25.582;2024-02-26T09:27:36;23.30;;;12.00;;
84025;SDS011;74110;45.660;25.582;2024-02-26T09:30:09;19.40;;;10.80;;
84025;SDS011;74110;45.660;25.582;2024-02-26T09:32:38;21.40;;;11.30;;
84025;SDS011;74110;45.660;25.582;2024-02-26T09:35:08;19.80;;;11.90;;
84025;SDS011;74110;45.660;25.582;2024-02-26T09:37:36;18.60;;;10.80;;
84025;SDS011;74110;45.660;25.582;2024-02-26T09:40:04;22.90;;;11.60;;
84025;SDS011;74110;45.660;25.582;2024-02-26T09:42:37;26.80;;;12.80;;
84025;SDS011;74110;45.660;25.582;2024-02-26T09:45:21;22.60;;;13.00;;
84025;SDS011;74110;45.660;25.582;2024-02-26T09:47:49;23.10;;;12.80;;
84025;SDS011;74110;45.660;25.582;2024-02-26T09:50:18;25.30;;;14.10;;
84025;SDS011;74110;45.660;25.582;2024-02-26T09:52:51;20.10;;;11.30;;
84025;SDS011;74110;45.660;25.582;2024-02-26T09:55:20;24.80;;;12.60;;
84025;SDS011;74110;45.660;25.582;2024-02-26T09:57:47;23.70;;;13.90;;
84025;SDS011;74110;45.660;25.582;2024-02-26T10:00:18;18.00;;;9.30;;
84025;SDS011;74110;45.660;25.582;2024-02-26T10:02:48;20.30;;;10.90;;
84025;SDS011;74110;45.660;25.582;2024-02-26T10:05:18;20.70;;;11.70;;
84025;SDS011;74110;45.660;25.582;2024-02-26T10:07:48;23.80;;;14.50;;
84025;SDS011;74110;45.660;25.582;2024-02-26T10:10:15;21.10;;;11.70;;
84025;SDS011;74110;45.660;25.582;2024-02-26T10:12:45;25.50;;;12.90;;
84025;SDS011;74110;45.660;25.582;2024-02-26T10:15:12;23.30;;;12.60;;
84025;SDS011;74110;45.660;25.582;2024-02-26T10:17:40;22.20;;;11.40;;
84025;SDS011;74110;45.660;25.582;2024-02-26T10:20:15;23.40;;;12.10;;
84025;SDS011;74110;45.660;25.582;2024-02-26T10:22:51;22.60;;;11.80;;
84025;SDS011;74110;45.660;25.582;2024-02-26T10:25:19;22.30;;;11.80;;
84025;SDS011;74110;45.660;25.582;2024-02-26T10:27:47;22.80;;;12.70;;
84025;SDS011;74110;45.660;25.582;2024-02-26T10:30:21;22.90;;;11.90;;
84025;SDS011;74110;45.660;25.582;2024-02-26T10:32:52;20.70;;;11.60;;
84025;SDS011;74110;45.660;25.582;2024-02-26T10:35:21;19.90;;;11.30;;
84025;SDS011;74110;45.660;25.582;2024-02-26T10:37:49;20.60;;;12.20;;
84025;SDS011;74110;45.660;25.582;2024-02-26T10:40:17;18.50;;;10.10;;
84025;SDS011;74110;45.660;25.582;2024-02-26T10:42:45;21.20;;;12.20;;
84025;SDS011;74110;45.660;25.582;2024-02-26T10:45:13;21.20;;;9.60;;
84025;SDS011;74110;45.660;25.582;2024-02-26T10:47:41;17.80;;;9.80;;
84025;SDS011;74110;45.660;25.582;2024-02-26T10:50:10;19.20;;;10.40;;
84025;SDS011;74110;45.660;25.582;2024-02-26T10:52:42;20.60;;;11.50;;
84025;SDS011;74110;45.660;25.582;2024-02-26T10:57:42;25.10;;;12.30;;
84025;SDS011;74110;45.660;25.582;2024-02-26T11:00:13;25.50;;;13.10;;
84025;SDS011;74110;45.660;25.582;2024-02-26T11:02:43;17.60;;;10.40;;
84025;SDS011;74110;45.660;25.582;2024-02-26T11:05:12;22.10;;;11.60;;
84025;SDS011;74110;45.660;25.582;2024-02-26T11:07:41;22.90;;;12.20;;
84025;SDS011;74110;45.660;25.582;2024-02-26T11:10:09;23.40;;;12.00;;
84025;SDS011;74110;45.660;25.582;2024-02-26T11:12:39;16.60;;;10.20;;
84025;SDS011;74110;45.660;25.582;2024-02-26T11:15:08;19.50;;;10.70;;
84025;SDS011;74110;45.660;25.582;2024-02-26T11:17:36;26.30;;;11.60;;
84025;SDS011;74110;45.660;25.582;2024-02-26T11:20:06;20.80;;;12.60;;
84025;SDS011;74110;45.660;25.582;2024-02-26T11:22:39;26.20;;;13.40;;
84025;SDS011;74110;45.660;25.582;2024-02-26T11:25:07;18.00;;;9.70;;
84025;SDS011;74110;45.660;25.582;2024-02-26T11:27:44;21.70;;;11.90;;
84025;SDS011;74110;45.660;25.582;2024-02-26T11:30:23;26.30;;;11.00;;
84025;SDS011;74110;45.660;25.582;2024-02-26T11:32:54;25.70;;;12.10;;
84025;SDS011;74110;45.660;25.582;2024-02-26T11:35:22;19.50;;;10.20;;
84025;SDS011;74110;45.660;25.582;2024-02-26T11:37:55;19.20;;;10.60;;
84025;SDS011;74110;45.660;25.582;2024-02-26T11:40:24;20.30;;;9.30;;
84025;SDS011;74110;45.660;25.582;2024-02-26T11:42:54;19.20;;;10.60;;
84025;SDS011;74110;45.660;25.582;2024-02-26T11:48:28;19.50;;;10.80;;
84025;SDS011;74110;45.660;25.582;2024-02-26T11:50:57;22.70;;;10.60;;
84025;SDS011;74110;45.660;25.582;2024-02-26T11:53:29;22.00;;;10.50;;
84025;SDS011;74110;45.660;25.582;2024-02-26T11:59:10;23.50;;;11.60;;
84025;SDS011;74110;45.660;25.582;2024-02-26T12:01:42;29.40;;;12.10;;
84025;SDS011;74110;45.660;25.582;2024-02-26T12:04:12;17.80;;;10.10;;
84025;SDS011;74110;45.660;25.582;2024-02-26T12:06:45;23.70;;;10.60;;
84025;SDS011;74110;45.660;25.582;2024-02-26T12:09:29;22.70;;;9.40;;
84025;SDS011;74110;45.660;25.582;2024-02-26T12:11:59;22.30;;;11.20;;
84025;SDS011;74110;45.660;25.582;2024-02-26T12:14:38;22.70;;;10.80;;
84025;SDS011;74110;45.660;25.582;2024-02-26T12:17:25;15.20;;;9.40;;
84025;SDS011;74110;45.660;25.582;2024-02-26T12:19:53;14.60;;;8.90;;
84025;SDS011;74110;45.660;25.582;2024-02-26T12:22:21;13.20;;;7.50;;
84025;SDS011;74110;45.660;25.582;2024-02-26T12:24:48;10.40;;;6.50;;
84025;SDS011;74110;45.660;25.582;2024-02-26T12:27:26;6.50;;;4.20;;
84025;SDS011;74110;45.660;25.582;2024-02-26T12:29:54;11.90;;;5.40;;
84025;SDS011;74110;45.660;25.582;2024-02-26T12:34:50;10.50;;;6.10;;
84025;SDS011;74110;45.660;25.582;2024-02-26T12:37:17;13.20;;;7.70;;
84025;SDS011;74110;45.660;25.582;2024-02-26T12:39:45;10.60;;;6.70;;
84025;SDS011;74110;45.660;25.582;2024-02-26T12:42:13;14.40;;;6.80;;
84025;SDS011;74110;45.660;25.582;2024-02-26T12:44:42;12.60;;;6.40;;
84025;SDS011;74110;45.660;25.582;2024-02-26T12:47:11;12.10;;;5.90;;
84025;SDS011;74110;45.660;25.582;2024-02-26T12:49:43;8.10;;;5.00;;
84025;SDS011;74110;45.660;25.582;2024-02-26T12:52:14;10.90;;;5.10;;
84025;SDS011;74110;45.660;25.582;2024-02-26T12:54:42;11.30;;;4.90;;
84025;SDS011;74110;45.660;25.582;2024-02-26T12:57:11;8.30;;;5.00;;
84025;SDS011;74110;45.660;25.582;2024-02-26T12:59:39;8.50;;;4.80;;
84025;SDS011;74110;45.660;25.582;2024-02-26T13:02:08;8.00;;;4.50;;
84025;SDS011;74110;45.660;25.582;2024-02-26T13:04:36;13.10;;;4.50;;
84025;SDS011;74110;45.660;25.582;2024-02-26T13:07:06;9.40;;;4.70;;
84025;SDS011;74110;45.660;25.582;2024-02-26T13:09:34;13.00;;;4.30;;
84025;SDS011;74110;45.660;25.582;2024-02-26T13:12:06;9.30;;;4.60;;
84025;SDS011;74110;45.660;25.582;2024-02-26T13:14:34;12.70;;;4.80;;
84025;SDS011;74110;45.660;25.582;2024-02-26T13:17:03;9.10;;;4.00;;
84025;SDS011;74110;45.660;25.582;2024-02-26T13:19:31;5.60;;;3.20;;
84025;SDS011;74110;45.660;25.582;2024-02-26T13:22:05;4.00;;;2.60;;
84025;SDS011;74110;45.660;25.582;2024-02-26T13:24:34;4.80;;;3.20;;
84025;SDS011;74110;45.660;25.582;2024-02-26T13:27:03;7.20;;;4.40;;
84025;SDS011;74110;45.660;25.582;2024-02-26T13:29:33;8.20;;;4.90;;
84025;SDS011;74110;45.660;25.582;2024-02-26T13:32:00;5.50;;;3.50;;
84025;SDS011;74110;45.660;25.582;2024-02-26T13:36:57;5.50;;;2.40;;
84025;SDS011;74110;45.660;25.582;2024-02-26T13:39:25;3.90;;;1.90;;
84025;SDS011;74110;45.660;25.582;2024-02-26T13:41:54;4.70;;;3.20;;
84025;SDS011;74110;45.660;25.582;2024-02-26T13:44:24;4.20;;;2.40;;
84025;SDS011;74110;45.660;25.582;2024-02-26T13:46:51;7.50;;;3.50;;
84025;SDS011;74110;45.660;25.582;2024-02-26T13:49:19;9.90;;;4.60;;
84025;SDS011;74110;45.660;25.582;2024-02-26T13:54:15;12.30;;;4.30;;
84025;SDS011;74110;45.660;25.582;2024-02-26T13:56:42;7.20;;;3.80;;
84025;SDS011;74110;45.660;25.582;2024-02-26T13:59:14;6.90;;;3.90;;
84025;SDS011;74110;45.660;25.582;2024-02-26T14:01:41;4.70;;;2.90;;
84025;SDS011;74110;45.660;25.582;2024-02-26T14:04:11;5.40;;;2.40;;
84025;SDS011;74110;45.660;25.582;2024-02-26T14:09:09;5.40;;;2.50;;
84025;SDS011;74110;45.660;25.582;2024-02-26T14:11:36;5.00;;;2.80;;
84025;SDS011;74110;45.660;25.582;2024-02-26T14:14:07;5.00;;;3.10;;
84025;SDS011;74110;45.660;25.582;2024-02-26T14:16:34;5.30;;;3.30;;
84025;SDS011;74110;45.660;25.582;2024-02-26T14:19:02;5.10;;;2.80;;
84025;SDS011;74110;45.660;25.582;2024-02-26T14:21:30;5.10;;;2.90;;
84025;SDS011;74110;45.660;25.582;2024-02-26T14:23:58;3.90;;;2.90;;
84025;SDS011;74110;45.660;25.582;2024-02-26T14:26:25;7.60;;;2.90;;
84025;SDS011;74110;45.660;25.582;2024-02-26T14:28:53;7.30;;;3.50;;
84025;SDS011;74110;45.660;25.582;2024-02-26T14:31:21;5.50;;;3.50;;
84025;SDS011;74110;45.660;25.582;2024-02-26T14:33:48;4.50;;;2.70;;
84025;SDS011;74110;45.660;25.582;2024-02-26T14:36:21;5.30;;;2.70;;
84025;SDS011;74110;45.660;25.582;2024-02-26T14:38:48;4.60;;;3.20;;
84025;SDS011;74110;45.660;25.582;2024-02-26T14:41:17;4.00;;;2.50;;
84025;SDS011;74110;45.660;25.582;2024-02-26T14:43:45;4.40;;;2.90;;
84025;SDS011;74110;45.660;25.582;2024-02-26T14:46:14;5.10;;;2.50;;
84025;SDS011;74110;45.660;25.582;2024-02-26T14:48:41;7.80;;;2.90;;
84025;SDS011;74110;45.660;25.582;2024-02-26T14:51:09;5.20;;;2.90;;
84025;SDS011;74110;45.660;25.582;2024-02-26T14:53:36;4.40;;;2.80;;
84025;SDS011;74110;45.660;25.582;2024-02-26T14:58:32;4.80;;;2.50;;
84025;SDS011;74110;45.660;25.582;2024-02-26T15:03:28;6.10;;;2.90;;
84025;SDS011;74110;45.660;25.582;2024-02-26T15:05:56;4.40;;;2.70;;
84025;SDS011;74110;45.660;25.582;2024-02-26T15:08:24;6.10;;;3.30;;
84025;SDS011;74110;45.660;25.582;2024-02-26T15:10:52;7.30;;;2.90;;
84025;SDS011;74110;45.660;25.582;2024-02-26T15:13:23;4.70;;;2.80;;
84025;SDS011;74110;45.660;25.582;2024-02-26T15:15:50;6.90;;;3.50;;
84025;SDS011;74110;45.660;25.582;2024-02-26T15:18:18;4.50;;;3.20;;